sensor_id;sensor_type;location;lat;lon;timestamp;pressure;altitude;pressure_sealevel;temperature;humidity
13420;BME280;6781;58.440;15.470;2022-11-23T00:02:15;102110.13;;;0.68;100.00
13420;BME280;6781;58.440;15.470;2022-11-23T00:04:43;102107.59;;;0.66;100.00
13420;BME280;6781;58.440;15.470;2022-11-23T00:07:10;102110.13;;;0.68;100.00
13420;BME280;6781;58.440;15.470;2022-11-23T00:09:37;102115.16;;;0.74;100.00
13420;BME280;6781;58.440;15.470;2022-11-23T00:12:03;102124.50;;;0.75;100.00
13420;BME280;6781;58.440;15.470;2022-11-23T00:14:30;102118.53;;;0.76;100.00
13420;BME280;6781;58.440;15.470;2022-11-23T00:16:57;102121.09;;;0.74;100.00
13420;BME280;6781;58.440;15.470;2022-11-23T00:19:23;102113.44;;;0.76;100.00
13420;BME280;6781;58.440;15.470;2022-11-23T00:21:52;102118.63;;;0.70;100.00
13420;BME280;6781;58.440;15.470;2022-11-23T00:24:18;102116.06;;;0.70;100.00
13420;BME280;6781;58.440;15.470;2022-11-23T00:26:45;102112.59;;;0.74;100.00
13420;BME280;6781;58.440;15.470;2022-11-23T00:29:12;102109.25;;;0.70;100.00
13420;BME280;6781;58.440;15.470;2022-11-23T00:31:39;102104.94;;;0.74;100.00
13420;BME280;6781;58.440;15.470;2022-11-23T00:34:05;102104.94;;;0.74;100.00
13420;BME280;6781;58.440;15.470;2022-11-23T00:36:32;102099.91;;;0.68;100.00
13420;BME280;6781;58.440;15.470;2022-11-23T00:39:00;102101.59;;;0.69;100.00
13420;BME280;6781;58.440;15.470;2022-11-23T00:41:27;102094.81;;;0.68;100.00
13420;BME280;6781;58.440;15.470;2022-11-23T00:43:53;102094.81;;;0.68;100.00
13420;BME280;6781;58.440;15.470;2022-11-23T00:46:22;102093.94;;;0.69;100.00
13420;BME280;6781;58.440;15.470;2022-11-23T00:48:49;102090.56;;;0.68;100.00
13420;BME280;6781;58.440;15.470;2022-11-23T00:51:17;102090.53;;;0.70;100.00
13420;BME280;6781;58.440;15.470;2022-11-23T00:53:44;102078.69;;;0.64;100.00
13420;BME280;6781;58.440;15.470;2022-11-23T00:56:13;102080.38;;;0.67;100.00
13420;BME280;6781;58.440;15.470;2022-11-23T00:58:40;102082.00;;;0.71;100.00
13420;BME280;6781;58.440;15.470;2022-11-23T01:01:08;102089.66;;;0.71;100.00
13420;BME280;6781;58.440;15.470;2022-11-23T01:03:35;102085.44;;;0.70;100.00
13420;BME280;6781;58.440;15.470;2022-11-23T01:06:03;102082.91;;;0.67;100.00
13420;BME280;6781;58.440;15.470;2022-11-23T01:08:30;102093.97;;;0.67;100.00
13420;BME280;6781;58.440;15.470;2022-11-23T01:11:00;102098.19;;;0.70;100.00
13420;BME280;6781;58.440;15.470;2022-11-23T01:13:28;102097.38;;;0.66;100.00
13420;BME280;6781;58.440;15.470;2022-11-23T01:15:55;102099.00;;;0.72;100.00
13420;BME280;6781;58.440;15.470;2022-11-23T01:18:22;102100.75;;;0.70;100.00
13420;BME280;6781;58.440;15.470;2022-11-23T01:20:49;102102.47;;;0.68;100.00
13420;BME280;6781;58.440;15.470;2022-11-23T01:23:16;102100.75;;;0.68;100.00
13420;BME280;6781;58.440;15.470;2022-11-23T01:25:43;102099.91;;;0.68;100.00
13420;BME280;6781;58.440;15.470;2022-11-23T01:28:09;102107.56;;;0.69;100.00
13420;BME280;6781;58.440;15.470;2022-11-23T01:30:37;102102.44;;;0.71;100.00
13420;BME280;6781;58.440;15.470;2022-11-23T01:33:04;102104.09;;;0.75;100.00
13420;BME280;6781;58.440;15.470;2022-11-23T01:35:31;102111.75;;;0.75;100.00
13420;BME280;6781;58.440;15.470;2022-11-23T01:37:58;102118.56;;;0.73;100.00
13420;BME280;6781;58.440;15.470;2022-11-23T01:40:24;102110.91;;;0.74;100.00
13420;BME280;6781;58.440;15.470;2022-11-23T01:42:52;102117.66;;;0.78;100.00
13420;BME280;6781;58.440;15.470;2022-11-23T01:45:33;102121.91;;;0.78;100.00
13420;BME280;6781;58.440;15.470;2022-11-23T01:48:01;102118.50;;;0.79;100.00
13420;BME280;6781;58.440;15.470;2022-11-23T01:50:28;102127.91;;;0.75;100.00
13420;BME280;6781;58.440;15.470;2022-11-23T01:52:55;102126.97;;;0.81;100.00
13420;BME280;6781;58.440;15.470;2022-11-23T01:55:23;102138.88;;;0.82;100.00
13420;BME280;6781;58.440;15.470;2022-11-23T01:57:50;102137.22;;;0.78;100.00
13420;BME280;6781;58.440;15.470;2022-11-23T02:00:17;102139.78;;;0.78;100.00
13420;BME280;6781;58.440;15.470;2022-11-23T02:02:46;102127.94;;;0.72;100.00
13420;BME280;6781;58.440;15.470;2022-11-23T02:05:17;102123.69;;;0.73;100.00
13420;BME280;6781;58.440;15.470;2022-11-23T02:07:47;102120.25;;;0.74;100.00
13420;BME280;6781;58.440;15.470;2022-11-23T02:10:14;102130.50;;;0.72;100.00
13420;BME280;6781;58.440;15.470;2022-11-23T02:12:41;102120.34;;;0.68;100.00
13420;BME280;6781;58.440;15.470;2022-11-23T02:15:08;102121.16;;;0.70;100.00
13420;BME280;6781;58.440;15.470;2022-11-23T02:17:35;102120.31;;;0.71;100.00
13420;BME280;6781;58.440;15.470;2022-11-23T02:20:03;102128.78;;;0.73;100.00
13420;BME280;6781;58.440;15.470;2022-11-23T02:22:36;102124.56;;;0.70;100.00
13420;BME280;6781;58.440;15.470;2022-11-23T02:25:07;102123.69;;;0.73;100.00
13420;BME280;6781;58.440;15.470;2022-11-23T02:27:38;102121.16;;;0.70;100.00
13420;BME280;6781;58.440;15.470;2022-11-23T02:30:04;102127.16;;;0.67;100.00
13420;BME280;6781;58.440;15.470;2022-11-23T02:32:31;102129.69;;;0.69;100.00
13420;BME280;6781;58.440;15.470;2022-11-23T02:34:59;102136.47;;;0.70;100.00
13420;BME280;6781;58.440;15.470;2022-11-23T02:37:26;102141.56;;;0.71;100.00
13420;BME280;6781;58.440;15.470;2022-11-23T02:39:52;102148.38;;;0.72;100.00
13420;BME280;6781;58.440;15.470;2022-11-23T02:42:19;102150.03;;;0.75;100.00
13420;BME280;6781;58.440;15.470;2022-11-23T02:44:50;102159.38;;;0.76;100.00
13420;BME280;6781;58.440;15.470;2022-11-23T02:47:19;102162.75;;;0.78;100.00
13420;BME280;6781;58.440;15.470;2022-11-23T02:49:46;102159.34;;;0.79;100.00
13420;BME280;6781;58.440;15.470;2022-11-23T02:52:13;102164.41;;;0.82;100.00
13420;BME280;6781;58.440;15.470;2022-11-23T02:54:40;102156.75;;;0.82;100.00
13420;BME280;6781;58.440;15.470;2022-11-23T02:57:07;102157.66;;;0.78;100.00
13420;BME280;6781;58.440;15.470;2022-11-23T02:59:34;102159.34;;;0.79;100.00
13420;BME280;6781;58.440;15.470;2022-11-23T03:02:03;102162.69;;;0.84;100.00
13420;BME280;6781;58.440;15.470;2022-11-23T03:07:05;102166.97;;;0.80;100.00
13420;BME280;6781;58.440;15.470;2022-11-23T03:09:32;102159.31;;;0.82;100.00
13420;BME280;6781;58.440;15.470;2022-11-23T03:11:58;102172.06;;;0.82;100.00
13420;BME280;6781;58.440;15.470;2022-11-23T03:14:25;102169.56;;;0.79;100.00
13420;BME280;6781;58.440;15.470;2022-11-23T03:16:51;102170.41;;;0.78;100.00
13420;BME280;6781;58.440;15.470;2022-11-23T03:19:19;102167.81;;;0.81;100.00
13420;BME280;6781;58.440;15.470;2022-11-23T03:21:46;102162.72;;;0.81;100.00
13420;BME280;6781;58.440;15.470;2022-11-23T03:24:13;102167.03;;;0.76;100.00
13420;BME280;6781;58.440;15.470;2022-11-23T03:26:40;102157.69;;;0.75;100.00
13420;BME280;6781;58.440;15.470;2022-11-23T03:29:06;102159.38;;;0.76;100.00
13420;BME280;6781;58.440;15.470;2022-11-23T03:31:33;102154.19;;;0.82;100.00
13420;BME280;6781;58.440;15.470;2022-11-23T03:34:00;102164.31;;;0.88;100.00
13420;BME280;6781;58.440;15.470;2022-11-23T03:36:28;102171.09;;;0.90;100.00
13420;BME280;6781;58.440;15.470;2022-11-23T03:38:54;102181.25;;;0.96;100.00
13420;BME280;6781;58.440;15.470;2022-11-23T03:41:21;102186.38;;;0.93;100.00
13420;BME280;6781;58.440;15.470;2022-11-23T03:43:47;102184.63;;;0.97;100.00
13420;BME280;6781;58.440;15.470;2022-11-23T03:46:14;102191.56;;;0.89;100.00
13420;BME280;6781;58.440;15.470;2022-11-23T03:48:41;102199.13;;;0.95;100.00
13420;BME280;6781;58.440;15.470;2022-11-23T03:51:07;102195.75;;;0.94;100.00
13420;BME280;6781;58.440;15.470;2022-11-23T03:53:36;102205.03;;;1.00;100.00
13420;BME280;6781;58.440;15.470;2022-11-23T03:56:02;102206.84;;;0.90;100.00
13420;BME280;6781;58.440;15.470;2022-11-23T03:58:29;102207.66;;;0.94;100.00
13420;BME280;6781;58.440;15.470;2022-11-23T04:00:56;102206.88;;;0.89;100.00
13420;BME280;6781;58.440;15.470;2022-11-23T04:03:22;102206.03;;;0.88;100.00
13420;BME280;6781;58.440;15.470;2022-11-23T04:05:49;102211.16;;;0.87;100.00
13420;BME280;6781;58.440;15.470;2022-11-23T04:08:15;102199.28;;;0.83;100.00
13420;BME280;6781;58.440;15.470;2022-11-23T04:10:43;102215.44;;;0.85;100.00
13420;BME280;6781;58.440;15.470;2022-11-23T04:13:10;102223.09;;;0.86;100.00
13420;BME280;6781;58.440;15.470;2022-11-23T04:15:37;102224.78;;;0.87;100.00
13420;BME280;6781;58.440;15.470;2022-11-23T04:18:03;102224.78;;;0.87;100.00
13420;BME280;6781;58.440;15.470;2022-11-23T04:20:30;102217.16;;;0.83;100.00
13420;BME280;6781;58.440;15.470;2022-11-23T04:22:57;102222.25;;;0.86;100.00
13420;BME280;6781;58.440;15.470;2022-11-23T04:25:23;102222.19;;;0.89;100.00
13420;BME280;6781;58.440;15.470;2022-11-23T04:27:51;102219.59;;;0.92;100.00
13420;BME280;6781;58.440;15.470;2022-11-23T04:30:18;102222.19;;;0.89;100.00
13420;BME280;6781;58.440;15.470;2022-11-23T04:32:45;102226.41;;;0.93;100.00
13420;BME280;6781;58.440;15.470;2022-11-23T04:35:12;102229.00;;;0.88;100.00
13420;BME280;6781;58.440;15.470;2022-11-23T04:37:38;102227.28;;;0.90;100.00
13420;BME280;6781;58.440;15.470;2022-11-23T04:40:06;102225.53;;;0.94;100.00
13420;BME280;6781;58.440;15.470;2022-11-23T04:42:32;102234.09;;;0.91;100.00
13420;BME280;6781;58.440;15.470;2022-11-23T04:45:00;102231.50;;;0.94;100.00
13420;BME280;6781;58.440;15.470;2022-11-23T04:47:27;102236.66;;;0.90;100.00
13420;BME280;6781;58.440;15.470;2022-11-23T04:49:53;102240.91;;;0.91;100.00
13420;BME280;6781;58.440;15.470;2022-11-23T04:52:20;102244.34;;;0.88;100.00
13420;BME280;6781;58.440;15.470;2022-11-23T04:54:47;102241.75;;;0.90;100.00
13420;BME280;6781;58.440;15.470;2022-11-23T04:57:14;102249.38;;;0.93;100.00
13420;BME280;6781;58.440;15.470;2022-11-23T04:59:41;102240.09;;;0.87;100.00
13420;BME280;6781;58.440;15.470;2022-11-23T05:02:09;102234.09;;;0.90;100.00
13420;BME280;6781;58.440;15.470;2022-11-23T05:04:35;102247.69;;;0.93;100.00
13420;BME280;6781;58.440;15.470;2022-11-23T05:07:02;102240.06;;;0.89;100.00
13420;BME280;6781;58.440;15.470;2022-11-23T05:09:29;102245.19;;;0.87;100.00
13420;BME280;6781;58.440;15.470;2022-11-23T05:11:55;102244.31;;;0.90;100.00
13420;BME280;6781;58.440;15.470;2022-11-23T05:14:23;102245.16;;;0.90;100.00
13420;BME280;6781;58.440;15.470;2022-11-23T05:16:49;102238.38;;;0.89;100.00
13420;BME280;6781;58.440;15.470;2022-11-23T05:19:17;102242.63;;;0.89;100.00
13420;BME280;6781;58.440;15.470;2022-11-23T05:21:44;102245.19;;;0.87;100.00
13420;BME280;6781;58.440;15.470;2022-11-23T05:24:11;102246.88;;;0.88;100.00
13420;BME280;6781;58.440;15.470;2022-11-23T05:26:37;102238.38;;;0.88;100.00
13420;BME280;6781;58.440;15.470;2022-11-23T05:29:04;102227.31;;;0.87;100.00
13420;BME280;6781;58.440;15.470;2022-11-23T05:31:31;102251.09;;;0.94;100.00
13420;BME280;6781;58.440;15.470;2022-11-23T05:33:57;102240.94;;;0.88;100.00
13420;BME280;6781;58.440;15.470;2022-11-23T05:36:26;102245.16;;;0.92;100.00
13420;BME280;6781;58.440;15.470;2022-11-23T05:38:53;102238.41;;;0.86;100.00
13420;BME280;6781;58.440;15.470;2022-11-23T05:41:19;102242.59;;;0.92;100.00
13420;BME280;6781;58.440;15.470;2022-11-23T05:43:46;102246.00;;;0.91;100.00
13420;BME280;6781;58.440;15.470;2022-11-23T05:46:13;102234.09;;;0.90;100.00
13420;BME280;6781;58.440;15.470;2022-11-23T05:48:40;102242.63;;;0.89;100.00
13420;BME280;6781;58.440;15.470;2022-11-23T05:51:06;102240.94;;;0.88;100.00
13420;BME280;6781;58.440;15.470;2022-11-23T05:53:35;102239.25;;;0.87;100.00
13420;BME280;6781;58.440;15.470;2022-11-23T05:56:01;102249.38;;;0.93;100.00
13420;BME280;6781;58.440;15.470;2022-11-23T05:58:28;102251.06;;;0.95;100.00
13420;BME280;6781;58.440;15.470;2022-11-23T06:00:56;102254.50;;;0.93;100.00
13420;BME280;6781;58.440;15.470;2022-11-23T06:03:22;102257.00;;;0.96;100.00
13420;BME280;6781;58.440;15.470;2022-11-23T06:05:49;102257.06;;;0.93;100.00
13420;BME280;6781;58.440;15.470;2022-11-23T06:08:16;102249.47;;;0.87;100.00
13420;BME280;6781;58.440;15.470;2022-11-23T06:10:44;102249.44;;;0.90;100.00
13420;BME280;6781;58.440;15.470;2022-11-23T06:13:11;102255.34;;;0.93;100.00
13420;BME280;6781;58.440;15.470;2022-11-23T06:15:38;102257.91;;;0.92;100.00
13420;BME280;6781;58.440;15.470;2022-11-23T06:18:05;102258.78;;;0.89;100.00
13420;BME280;6781;58.440;15.470;2022-11-23T06:20:32;102261.34;;;0.91;100.00
13420;BME280;6781;58.440;15.470;2022-11-23T06:22:58;102271.50;;;0.94;100.00
13420;BME280;6781;58.440;15.470;2022-11-23T06:25:25;102263.00;;;0.93;100.00
13420;BME280;6781;58.440;15.470;2022-11-23T06:27:54;102274.94;;;0.93;100.00
13420;BME280;6781;58.440;15.470;2022-11-23T06:30:21;102270.69;;;0.92;100.00
13420;BME280;6781;58.440;15.470;2022-11-23T06:32:48;102268.97;;;0.92;100.00
13420;BME280;6781;58.440;15.470;2022-11-23T06:35:14;102273.25;;;0.92;100.00
13420;BME280;6781;58.440;15.470;2022-11-23T06:37:41;102271.59;;;0.88;100.00
13420;BME280;6781;58.440;15.470;2022-11-23T06:40:08;102268.22;;;0.83;100.00
13420;BME280;6781;58.440;15.470;2022-11-23T06:42:35;102270.75;;;0.87;100.00
13420;BME280;6781;58.440;15.470;2022-11-23T06:45:04;102269.13;;;0.80;100.00
13420;BME280;6781;58.440;15.470;2022-11-23T06:47:30;102271.59;;;0.88;100.00
13420;BME280;6781;58.440;15.470;2022-11-23T06:49:57;102274.16;;;0.86;100.00
13420;BME280;6781;58.440;15.470;2022-11-23T06:52:24;102264.91;;;0.76;100.00
13420;BME280;6781;58.440;15.470;2022-11-23T06:54:51;102272.53;;;0.78;100.00
13420;BME280;6781;58.440;15.470;2022-11-23T06:57:17;102275.06;;;0.81;100.00
13420;BME280;6781;58.440;15.470;2022-11-23T06:59:44;102269.94;;;0.84;100.00
13420;BME280;6781;58.440;15.470;2022-11-23T07:02:13;102273.34;;;0.83;100.00
13420;BME280;6781;58.440;15.470;2022-11-23T07:04:39;102269.09;;;0.83;100.00
13420;BME280;6781;58.440;15.470;2022-11-23T07:07:06;102262.25;;;0.85;100.00
13420;BME280;6781;58.440;15.470;2022-11-23T07:09:33;102263.16;;;0.80;100.00
13420;BME280;6781;58.440;15.470;2022-11-23T07:12:00;102270.00;;;0.78;100.00
13420;BME280;6781;58.440;15.470;2022-11-23T07:14:27;102270.81;;;0.81;100.00
13420;BME280;6781;58.440;15.470;2022-11-23T07:16:54;102271.63;;;0.85;100.00
13420;BME280;6781;58.440;15.470;2022-11-23T07:19:22;102272.44;;;0.88;100.00
13420;BME280;6781;58.440;15.470;2022-11-23T07:21:49;102275.00;;;0.87;100.00
13420;BME280;6781;58.440;15.470;2022-11-23T07:24:15;102271.56;;;0.89;100.00
13420;BME280;6781;58.440;15.470;2022-11-23T07:26:42;102259.78;;;0.78;100.00
13420;BME280;6781;58.440;15.470;2022-11-23T07:29:09;102259.72;;;0.82;100.00
13420;BME280;6781;58.440;15.470;2022-11-23T07:31:35;102261.47;;;0.79;100.00
13420;BME280;6781;58.440;15.470;2022-11-23T07:34:02;102245.28;;;0.81;100.00
13420;BME280;6781;58.440;15.470;2022-11-23T07:36:30;102242.81;;;0.74;100.00
13420;BME280;6781;58.440;15.470;2022-11-23T07:38:57;102239.38;;;0.75;100.00
13420;BME280;6781;58.440;15.470;2022-11-23T07:41:24;102235.16;;;0.72;100.00
13420;BME280;6781;58.440;15.470;2022-11-23T07:43:51;102239.34;;;0.78;100.00
13420;BME280;6781;58.440;15.470;2022-11-23T07:46:18;102245.34;;;0.74;100.00
13420;BME280;6781;58.440;15.470;2022-11-23T07:48:45;102247.03;;;0.76;100.00
13420;BME280;6781;58.440;15.470;2022-11-23T07:51:12;102248.75;;;0.76;100.00
13420;BME280;6781;58.440;15.470;2022-11-23T07:53:44;102250.44;;;0.77;100.00
13420;BME280;6781;58.440;15.470;2022-11-23T07:56:11;102262.31;;;0.81;100.00
13420;BME280;6781;58.440;15.470;2022-11-23T07:58:37;102262.34;;;0.76;100.00
13420;BME280;6781;58.440;15.470;2022-11-23T08:01:06;102264.06;;;0.74;100.00
13420;BME280;6781;58.440;15.470;2022-11-23T08:03:35;102270.03;;;0.75;100.00
13420;BME280;6781;58.440;15.470;2022-11-23T08:06:02;102267.47;;;0.75;100.00
13420;BME280;6781;58.440;15.470;2022-11-23T08:08:29;102271.72;;;0.76;100.00
13420;BME280;6781;58.440;15.470;2022-11-23T08:10:57;102271.75;;;0.73;100.00
13420;BME280;6781;58.440;15.470;2022-11-23T08:13:23;102264.94;;;0.72;100.00
13420;BME280;6781;58.440;15.470;2022-11-23T08:15:51;102261.56;;;0.70;100.00
13420;BME280;6781;58.440;15.470;2022-11-23T08:18:18;102262.44;;;0.67;100.00
13420;BME280;6781;58.440;15.470;2022-11-23T08:20:45;102268.31;;;0.77;100.00
13420;BME280;6781;58.440;15.470;2022-11-23T08:23:12;102262.41;;;0.70;100.00
13420;BME280;6781;58.440;15.470;2022-11-23T08:25:39;102261.53;;;0.73;100.00
13420;BME280;6781;58.440;15.470;2022-11-23T08:28:11;102280.22;;;0.78;100.00
13420;BME280;6781;58.440;15.470;2022-11-23T08:30:38;102290.41;;;0.78;100.00
13420;BME280;6781;58.440;15.470;2022-11-23T08:33:18;102292.16;;;0.76;100.00
13420;BME280;6781;58.440;15.470;2022-11-23T08:35:52;102293.78;;;0.83;100.00
13420;BME280;6781;58.440;15.470;2022-11-23T08:38:20;102285.34;;;0.76;100.00
13420;BME280;6781;58.440;15.470;2022-11-23T08:40:47;102280.31;;;0.69;100.00
13420;BME280;6781;58.440;15.470;2022-11-23T08:43:15;102276.88;;;0.70;100.00
13420;BME280;6781;58.440;15.470;2022-11-23T08:45:44;102289.63;;;0.71;100.00
13420;BME280;6781;58.440;15.470;2022-11-23T08:48:11;102292.13;;;0.79;100.00
13420;BME280;6781;58.440;15.470;2022-11-23T08:50:38;102287.94;;;0.70;100.00
13420;BME280;6781;58.440;15.470;2022-11-23T08:53:05;102282.00;;;0.70;100.00
13420;BME280;6781;58.440;15.470;2022-11-23T08:55:32;102272.59;;;0.73;100.00
13420;BME280;6781;58.440;15.470;2022-11-23T08:57:59;102276.03;;;0.71;100.00
13420;BME280;6781;58.440;15.470;2022-11-23T09:00:28;102283.59;;;0.80;100.00
13420;BME280;6781;58.440;15.470;2022-11-23T09:02:55;102303.81;;;0.98;100.00
13420;BME280;6781;58.440;15.470;2022-11-23T09:05:23;102285.25;;;0.84;100.00
13420;BME280;6781;58.440;15.470;2022-11-23T09:07:50;102295.31;;;0.96;100.00
13420;BME280;6781;58.440;15.470;2022-11-23T09:10:17;102272.53;;;0.79;100.00
13420;BME280;6781;58.440;15.470;2022-11-23T09:12:45;102279.31;;;0.82;100.00
13420;BME280;6781;58.440;15.470;2022-11-23T09:15:13;102275.06;;;0.81;100.00
13420;BME280;6781;58.440;15.470;2022-11-23T09:17:42;102287.69;;;0.94;100.00
13420;BME280;6781;58.440;15.470;2022-11-23T09:20:09;102284.31;;;0.91;100.00
13420;BME280;6781;58.440;15.470;2022-11-23T09:22:37;102286.75;;;1.00;100.00
13420;BME280;6781;58.440;15.470;2022-11-23T09:25:04;102279.13;;;0.97;100.00
13420;BME280;6781;58.440;15.470;2022-11-23T09:27:31;102290.16;;;1.01;100.00
13420;BME280;6781;58.440;15.470;2022-11-23T09:29:57;102284.25;;;0.97;100.00
13420;BME280;6781;58.440;15.470;2022-11-23T09:32:24;102276.63;;;0.94;100.00
13420;BME280;6781;58.440;15.470;2022-11-23T09:34:53;102275.75;;;0.95;100.00
13420;BME280;6781;58.440;15.470;2022-11-23T09:37:20;102283.38;;;0.98;100.00
13420;BME280;6781;58.440;15.470;2022-11-23T09:39:47;102279.97;;;0.99;100.00
13420;BME280;6781;58.440;15.470;2022-11-23T09:45:09;102277.25;;;1.11;100.00
13420;BME280;6781;58.440;15.470;2022-11-23T09:50:22;102287.28;;;1.28;100.00
13420;BME280;6781;58.440;15.470;2022-11-23T09:52:50;102277.16;;;1.20;100.00
13420;BME280;6781;58.440;15.470;2022-11-23T09:55:18;102273.75;;;1.20;100.00
13420;BME280;6781;58.440;15.470;2022-11-23T09:57:47;102278.84;;;1.21;100.00
13420;BME280;6781;58.440;15.470;2022-11-23T10:00:17;102261.16;;;1.06;100.00
13420;BME280;6781;58.440;15.470;2022-11-23T10:02:46;102260.06;;;1.24;100.00
13420;BME280;6781;58.440;15.470;2022-11-23T10:05:14;102250.78;;;1.18;100.00
13420;BME280;6781;58.440;15.470;2022-11-23T10:16:01;102231.84;;;1.32;100.00
13420;BME280;6781;58.440;15.470;2022-11-23T10:18:35;102237.75;;;1.37;100.00
13420;BME280;6781;58.440;15.470;2022-11-23T10:21:05;102235.16;;;1.38;100.00
13420;BME280;6781;58.440;15.470;2022-11-23T10:23:39;102238.47;;;1.45;100.00
13420;BME280;6781;58.440;15.470;2022-11-23T10:26:13;102230.06;;;1.38;100.00
13420;BME280;6781;58.440;15.470;2022-11-23T10:28:41;102229.13;;;1.44;100.00
13420;BME280;6781;58.440;15.470;2022-11-23T10:31:11;102224.00;;;1.44;100.00
13420;BME280;6781;58.440;15.470;2022-11-23T10:33:40;102216.34;;;1.44;100.00
13420;BME280;6781;58.440;15.470;2022-11-23T10:36:09;102224.66;;;1.58;100.00
13420;BME280;6781;58.440;15.470;2022-11-23T10:38:38;102224.66;;;1.58;100.00
13420;BME280;6781;58.440;15.470;2022-11-23T10:41:05;102220.19;;;1.71;100.00
13420;BME280;6781;58.440;15.470;2022-11-23T10:43:35;102205.94;;;1.56;100.00
13420;BME280;6781;58.440;15.470;2022-11-23T10:46:25;102195.81;;;1.50;100.00
13420;BME280;6781;58.440;15.470;2022-11-23T10:48:52;102202.31;;;1.71;100.00
13420;BME280;6781;58.440;15.470;2022-11-23T10:51:21;102203.16;;;1.71;100.00
13420;BME280;6781;58.440;15.470;2022-11-23T10:53:53;102191.22;;;1.70;100.00
13420;BME280;6781;58.440;15.470;2022-11-23T10:56:23;102198.53;;;1.90;100.00
13420;BME280;6781;58.440;15.470;2022-11-23T10:58:52;102179.13;;;1.78;100.00
13420;BME280;6781;58.440;15.470;2022-11-23T11:01:20;102157.28;;;1.60;100.00
13420;BME280;6781;58.440;15.470;2022-11-23T11:03:54;102163.09;;;1.70;100.00
13420;BME280;6781;58.440;15.470;2022-11-23T11:06:25;102152.81;;;1.73;100.00
13420;BME280;6781;58.440;15.470;2022-11-23T11:08:53;102125.88;;;1.54;100.00
13420;BME280;6781;58.440;15.470;2022-11-23T11:11:25;102121.63;;;1.53;100.00
13420;BME280;6781;58.440;15.470;2022-11-23T11:13:59;102118.97;;;1.59;100.00
13420;BME280;6781;58.440;15.470;2022-11-23T11:16:27;102111.56;;;1.42;100.00
13420;BME280;6781;58.440;15.470;2022-11-23T11:18:59;102094.41;;;1.50;100.00
13420;BME280;6781;58.440;15.470;2022-11-23T11:21:59;102097.97;;;1.42;100.00
13420;BME280;6781;58.440;15.470;2022-11-23T11:24:30;102102.88;;;1.54;100.00
13420;BME280;6781;58.440;15.470;2022-11-23T11:26:58;102090.25;;;1.45;100.00
13420;BME280;6781;58.440;15.470;2022-11-23T11:29:30;102086.75;;;1.49;100.00
13420;BME280;6781;58.440;15.470;2022-11-23T11:31:58;102089.16;;;1.58;100.00
13420;BME280;6781;58.440;15.470;2022-11-23T11:34:28;102073.22;;;1.44;100.00
13420;BME280;6781;58.440;15.470;2022-11-23T11:36:59;102068.91;;;1.47;100.00
13420;BME280;6781;58.440;15.470;2022-11-23T11:39:28;102067.94;;;1.53;100.00
13420;BME280;6781;58.440;15.470;2022-11-23T11:41:59;102068.06;;;1.47;100.00
13420;BME280;6781;58.440;15.470;2022-11-23T11:44:28;102055.16;;;1.53;100.00
13420;BME280;6781;58.440;15.470;2022-11-23T11:46:59;102051.91;;;1.45;100.00
13420;BME280;6781;58.440;15.470;2022-11-23T11:49:31;102055.13;;;1.56;100.00
13420;BME280;6781;58.440;15.470;2022-11-23T11:52:02;102046.69;;;1.51;100.00
13420;BME280;6781;58.440;15.470;2022-11-23T11:54:31;102038.19;;;1.49;100.00
13420;BME280;6781;58.440;15.470;2022-11-23T11:57:04;102035.41;;;1.61;100.00
13420;BME280;6781;58.440;15.470;2022-11-23T11:59:34;102016.22;;;1.39;100.00
13420;BME280;6781;58.440;15.470;2022-11-23T12:02:13;102017.09;;;1.38;100.00
13420;BME280;6781;58.440;15.470;2022-11-23T12:04:44;102015.25;;;1.46;100.00
13420;BME280;6781;58.440;15.470;2022-11-23T12:07:15;102010.25;;;1.40;100.00
13420;BME280;6781;58.440;15.470;2022-11-23T12:09:44;102009.47;;;1.36;100.00
13420;BME280;6781;58.440;15.470;2022-11-23T12:12:14;102000.13;;;1.34;100.00
13420;BME280;6781;58.440;15.470;2022-11-23T12:14:42;102006.94;;;1.35;100.00
13420;BME280;6781;58.440;15.470;2022-11-23T12:17:12;102003.59;;;1.29;100.00
13420;BME280;6781;58.440;15.470;2022-11-23T12:19:45;102012.03;;;1.35;100.00
13420;BME280;6781;58.440;15.470;2022-11-23T12:22:23;102009.53;;;1.32;100.00
13420;BME280;6781;58.440;15.470;2022-11-23T12:24:55;102012.16;;;1.28;100.00
13420;BME280;6781;58.440;15.470;2022-11-23T12:27:27;102018.00;;;1.35;100.00
13420;BME280;6781;58.440;15.470;2022-11-23T12:32:42;102010.41;;;1.30;100.00
13420;BME280;6781;58.440;15.470;2022-11-23T12:35:27;102001.16;;;1.23;100.00
13420;BME280;6781;58.440;15.470;2022-11-23T12:37:59;101995.03;;;1.34;100.00
13420;BME280;6781;58.440;15.470;2022-11-23T12:40:41;101994.38;;;1.22;100.00
13420;BME280;6781;58.440;15.470;2022-11-23T12:43:11;101983.50;;;1.11;100.00
13420;BME280;6781;58.440;15.470;2022-11-23T12:48:28;101988.59;;;1.11;100.00
13420;BME280;6781;58.440;15.470;2022-11-23T12:51:02;101999.59;;;1.16;100.00
13420;BME280;6781;58.440;15.470;2022-11-23T12:53:34;101996.97;;;1.19;100.00
13420;BME280;6781;58.440;15.470;2022-11-23T12:56:08;101989.38;;;1.15;100.00
13420;BME280;6781;58.440;15.470;2022-11-23T12:58:39;101989.50;;;1.09;100.00
13420;BME280;6781;58.440;15.470;2022-11-23T13:01:09;101993.72;;;1.10;100.00
13420;BME280;6781;58.440;15.470;2022-11-23T13:03:52;101993.81;;;1.05;100.00
13420;BME280;6781;58.440;15.470;2022-11-23T13:17:41;101989.81;;;0.89;100.00
13420;BME280;6781;58.440;15.470;2022-11-23T13:20:25;101994.06;;;0.90;100.00
13420;BME280;6781;58.440;15.470;2022-11-23T13:22:54;101994.06;;;0.90;100.00
13420;BME280;6781;58.440;15.470;2022-11-23T13:25:23;101999.06;;;0.96;100.00
13420;BME280;6781;58.440;15.470;2022-11-23T13:27:54;102004.22;;;0.93;100.00
13420;BME280;6781;58.440;15.470;2022-11-23T13:30:22;102008.34;;;1.02;100.00